CMP450 MDSD-TJSJ
Flight info
| Callsign | CMP450 |
|---|---|
| Flight time | 0h 41m |
| Altitude | 27000 |
| Route | MELA2J MELLA G633 MAZ RTE12 JOSHE JOSHE3 |
| Aircraft | B738/M-SDE3FGHIRWY/S |
Departure
| Time | 2026-05-06 23:07 |
|---|---|
| Airport | Las Américas International Airport (MDSD) |
Arrival
| Time | 2026-05-06 23:48 |
|---|---|
| Airport | Luis Munoz Marin International Airport (TJSJ) |
| Time | Latitude | Longitude | Altitude | Speed | Heading |
|---|---|---|---|---|---|
| 2026-05-06 22:28 | 18.42946 | -69.67436 | 62 ft | 0 kts | 251° |
| 2026-05-06 22:57 | 18.42947 | -69.67435 | 66 ft | 1 kts | 251° |
| 2026-05-06 22:57 | 18.42955 | -69.67411 | 63 ft | 4 kts | 251° |
| 2026-05-06 22:58 | 18.42963 | -69.67384 | 57 ft | 4 kts | 253° |
| 2026-05-06 22:58 | 18.42970 | -69.67357 | 63 ft | 3 kts | 253° |
| 2026-05-06 22:58 | 18.42972 | -69.67353 | 63 ft | 1 kts | 253° |
| 2026-05-06 23:01 | 18.42973 | -69.67362 | 58 ft | 4 kts | 283° |
| 2026-05-06 23:01 | 18.43009 | -69.67409 | 58 ft | 13 kts | 317° |
| 2026-05-06 23:01 | 18.43107 | -69.67456 | 56 ft | 18 kts | 341° |
| 2026-05-06 23:02 | 18.43244 | -69.67505 | 61 ft | 23 kts | 341° |
| 2026-05-06 23:02 | 18.43385 | -69.67539 | 61 ft | 19 kts | 25° |
| 2026-05-06 23:02 | 18.43503 | -69.67550 | 64 ft | 18 kts | 339° |
| 2026-05-06 23:02 | 18.43618 | -69.67595 | 64 ft | 17 kts | 338° |
| 2026-05-06 23:03 | 18.43726 | -69.67639 | 62 ft | 16 kts | 339° |
| 2026-05-06 23:03 | 18.43823 | -69.67678 | 59 ft | 15 kts | 339° |
| 2026-05-06 23:03 | 18.43914 | -69.67715 | 63 ft | 14 kts | 339° |
| 2026-05-06 23:03 | 18.43999 | -69.67749 | 60 ft | 13 kts | 339° |
| 2026-05-06 23:04 | 18.44079 | -69.67782 | 66 ft | 12 kts | 338° |
| 2026-05-06 23:04 | 18.44136 | -69.67747 | 59 ft | 10 kts | 66° |
| 2026-05-06 23:04 | 18.44162 | -69.67678 | 60 ft | 10 kts | 69° |
| 2026-05-06 23:04 | 18.44186 | -69.67610 | 66 ft | 10 kts | 69° |
| 2026-05-06 23:05 | 18.44229 | -69.67559 | 64 ft | 9 kts | 30° |
| 2026-05-06 23:05 | 18.44286 | -69.67527 | 68 ft | 9 kts | 28° |
| 2026-05-06 23:05 | 18.44340 | -69.67496 | 61 ft | 8 kts | 33° |
| 2026-05-06 23:05 | 18.44370 | -69.67450 | 68 ft | 8 kts | 72° |
| 2026-05-06 23:06 | 18.44355 | -69.67399 | 66 ft | 8 kts | 150° |
| 2026-05-06 23:06 | 18.44221 | -69.67351 | 68 ft | 50 kts | 161° |
| 2026-05-06 23:06 | 18.43649 | -69.67142 | 65 ft | 122 kts | 161° |
| 2026-05-06 23:06 | 18.42663 | -69.66781 | 163 ft | 170 kts | 160° |
| 2026-05-06 23:07 | 18.41522 | -69.66358 | 923 ft | 174 kts | 160° |
| 2026-05-06 23:07 | 18.40412 | -69.65949 | 1876 ft | 167 kts | 161° |
| 2026-05-06 23:07 | 18.39265 | -69.65531 | 2407 ft | 188 kts | 160° |
| 2026-05-06 23:07 | 18.37945 | -69.65017 | 2642 ft | 216 kts | 151° |
| 2026-05-06 23:08 | 18.36819 | -69.63880 | 3030 ft | 232 kts | 128° |
| 2026-05-06 23:08 | 18.36125 | -69.62320 | 3512 ft | 248 kts | 105° |
| 2026-05-06 23:08 | 18.35700 | -69.60513 | 4077 ft | 259 kts | 105° |
| 2026-05-06 23:08 | 18.35194 | -69.58674 | 4913 ft | 262 kts | 105° |
| 2026-05-06 23:09 | 18.34708 | -69.56817 | 5711 ft | 266 kts | 105° |
| 2026-05-06 23:09 | 18.34195 | -69.54922 | 6403 ft | 272 kts | 106° |
| 2026-05-06 23:09 | 18.33700 | -69.52991 | 7207 ft | 275 kts | 105° |
| 2026-05-06 23:09 | 18.33204 | -69.51042 | 7978 ft | 278 kts | 105° |
| 2026-05-06 23:10 | 18.32694 | -69.49058 | 8671 ft | 283 kts | 105° |
| 2026-05-06 23:10 | 18.32177 | -69.47078 | 9393 ft | 286 kts | 105° |
| 2026-05-06 23:10 | 18.31640 | -69.45042 | 10066 ft | 291 kts | 105° |
| 2026-05-06 23:10 | 18.31084 | -69.42937 | 10425 ft | 310 kts | 105° |
| 2026-05-06 23:11 | 18.30584 | -69.40651 | 10668 ft | 329 kts | 98° |
| 2026-05-06 23:11 | 18.30347 | -69.38233 | 11226 ft | 336 kts | 94° |
| 2026-05-06 23:11 | 18.30194 | -69.35764 | 11883 ft | 340 kts | 94° |
| 2026-05-06 23:11 | 18.30057 | -69.33264 | 12595 ft | 343 kts | 94° |
| 2026-05-06 23:12 | 18.29913 | -69.30739 | 13258 ft | 348 kts | 94° |
| 2026-05-06 23:12 | 18.29755 | -69.28179 | 13897 ft | 354 kts | 94° |
| 2026-05-06 23:12 | 18.29584 | -69.25579 | 14537 ft | 359 kts | 94° |
| 2026-05-06 23:12 | 18.29402 | -69.22940 | 15237 ft | 363 kts | 94° |
| 2026-05-06 23:13 | 18.29214 | -69.20283 | 15947 ft | 366 kts | 94° |
| 2026-05-06 23:13 | 18.29020 | -69.17595 | 16625 ft | 371 kts | 94° |
| 2026-05-06 23:13 | 18.28822 | -69.14876 | 17271 ft | 375 kts | 94° |
| 2026-05-06 23:13 | 18.28620 | -69.12122 | 17911 ft | 379 kts | 94° |
| 2026-05-06 23:14 | 18.28415 | -69.09342 | 18540 ft | 383 kts | 94° |
| 2026-05-06 23:14 | 18.28207 | -69.06537 | 19163 ft | 387 kts | 94° |
| 2026-05-06 23:14 | 18.27996 | -69.03695 | 19751 ft | 392 kts | 94° |
| 2026-05-06 23:14 | 18.27783 | -69.00827 | 20354 ft | 395 kts | 94° |
| 2026-05-06 23:15 | 18.27567 | -68.97937 | 20934 ft | 399 kts | 94° |
| 2026-05-06 23:15 | 18.27349 | -68.95009 | 21469 ft | 403 kts | 94° |
| 2026-05-06 23:15 | 18.27130 | -68.92065 | 22020 ft | 406 kts | 94° |
| 2026-05-06 23:15 | 18.26907 | -68.89095 | 22563 ft | 409 kts | 94° |
| 2026-05-06 23:16 | 18.26682 | -68.86115 | 23209 ft | 408 kts | 94° |
| 2026-05-06 23:16 | 18.26458 | -68.83151 | 23906 ft | 405 kts | 93° |
| 2026-05-06 23:16 | 18.26234 | -68.80198 | 24533 ft | 405 kts | 93° |
| 2026-05-06 23:16 | 18.26010 | -68.77243 | 25099 ft | 406 kts | 93° |
| 2026-05-06 23:17 | 18.25785 | -68.74285 | 25680 ft | 405 kts | 93° |
| 2026-05-06 23:17 | 18.25561 | -68.71337 | 26289 ft | 405 kts | 93° |
| 2026-05-06 23:17 | 18.25336 | -68.68386 | 26868 ft | 405 kts | 93° |
| 2026-05-06 23:17 | 18.25110 | -68.65420 | 27066 ft | 409 kts | 93° |
| 2026-05-06 23:18 | 18.24883 | -68.62445 | 27063 ft | 406 kts | 93° |
| 2026-05-06 23:18 | 18.24657 | -68.59498 | 27069 ft | 404 kts | 93° |
| 2026-05-06 23:18 | 18.24430 | -68.56550 | 27084 ft | 405 kts | 93° |
| 2026-05-06 23:18 | 18.24203 | -68.53594 | 27086 ft | 405 kts | 93° |
| 2026-05-06 23:19 | 18.23975 | -68.50642 | 27081 ft | 405 kts | 93° |
| 2026-05-06 23:19 | 18.23747 | -68.47684 | 27081 ft | 406 kts | 93° |
| 2026-05-06 23:19 | 18.23517 | -68.44726 | 27079 ft | 406 kts | 93° |
| 2026-05-06 23:19 | 18.23286 | -68.41762 | 27078 ft | 406 kts | 93° |
| 2026-05-06 23:20 | 18.23056 | -68.38805 | 27075 ft | 406 kts | 93° |
| 2026-05-06 23:20 | 18.22826 | -68.35844 | 27074 ft | 406 kts | 93° |
| 2026-05-06 23:20 | 18.22597 | -68.32888 | 27072 ft | 406 kts | 93° |
| 2026-05-06 23:20 | 18.22366 | -68.29931 | 27075 ft | 406 kts | 93° |
| 2026-05-06 23:21 | 18.22133 | -68.26973 | 27077 ft | 406 kts | 93° |
| 2026-05-06 23:21 | 18.21904 | -68.24053 | 27074 ft | 406 kts | 94° |
| 2026-05-06 23:21 | 18.21672 | -68.21100 | 27075 ft | 405 kts | 94° |
| 2026-05-06 23:21 | 18.21436 | -68.18106 | 27072 ft | 405 kts | 94° |
| 2026-05-06 23:22 | 18.21206 | -68.15194 | 27073 ft | 405 kts | 94° |
| 2026-05-06 23:22 | 18.20973 | -68.12249 | 27073 ft | 404 kts | 94° |
| 2026-05-06 23:22 | 18.20740 | -68.09305 | 27074 ft | 404 kts | 94° |
| 2026-05-06 23:22 | 18.20507 | -68.06365 | 27075 ft | 404 kts | 94° |
| 2026-05-06 23:23 | 18.20273 | -68.03420 | 27076 ft | 404 kts | 94° |
| 2026-05-06 23:23 | 18.20039 | -68.00477 | 27078 ft | 404 kts | 93° |
| 2026-05-06 23:23 | 18.19983 | -67.97526 | 27078 ft | 402 kts | 86° |
| 2026-05-06 23:23 | 18.20159 | -67.94622 | 26870 ft | 397 kts | 83° |
| 2026-05-06 23:24 | 18.20411 | -67.91745 | 26587 ft | 393 kts | 83° |
| 2026-05-06 23:24 | 18.20670 | -67.88891 | 26223 ft | 391 kts | 83° |
| 2026-05-06 23:24 | 18.20912 | -67.86055 | 25874 ft | 388 kts | 84° |
| 2026-05-06 23:24 | 18.21133 | -67.83238 | 25516 ft | 385 kts | 84° |
| 2026-05-06 23:25 | 18.21339 | -67.80441 | 25156 ft | 383 kts | 84° |
| 2026-05-06 23:25 | 18.21535 | -67.77654 | 24799 ft | 381 kts | 84° |
| 2026-05-06 23:25 | 18.21725 | -67.74891 | 24441 ft | 378 kts | 84° |
| 2026-05-06 23:25 | 18.21911 | -67.72141 | 24088 ft | 376 kts | 85° |
| 2026-05-06 23:26 | 18.22095 | -67.69411 | 23728 ft | 373 kts | 85° |
| 2026-05-06 23:26 | 18.22278 | -67.66695 | 23362 ft | 371 kts | 85° |
| 2026-05-06 23:26 | 18.22460 | -67.63997 | 23004 ft | 369 kts | 85° |
| 2026-05-06 23:26 | 18.22641 | -67.61311 | 22652 ft | 367 kts | 85° |
| 2026-05-06 23:27 | 18.22821 | -67.58648 | 22300 ft | 365 kts | 85° |
| 2026-05-06 23:27 | 18.22999 | -67.55992 | 21948 ft | 363 kts | 85° |
| 2026-05-06 23:27 | 18.23176 | -67.53353 | 21598 ft | 360 kts | 85° |
| 2026-05-06 23:27 | 18.23351 | -67.50734 | 21250 ft | 358 kts | 85° |
| 2026-05-06 23:28 | 18.23523 | -67.48126 | 20900 ft | 356 kts | 85° |
| 2026-05-06 23:28 | 18.23689 | -67.45530 | 20569 ft | 354 kts | 85° |
| 2026-05-06 23:28 | 18.23852 | -67.42954 | 20209 ft | 352 kts | 85° |
| 2026-05-06 23:28 | 18.24014 | -67.40385 | 19865 ft | 351 kts | 85° |
| 2026-05-06 23:29 | 18.24174 | -67.37838 | 19523 ft | 349 kts | 85° |
| 2026-05-06 23:29 | 18.24334 | -67.35302 | 19186 ft | 347 kts | 85° |
| 2026-05-06 23:29 | 18.24493 | -67.32778 | 18852 ft | 345 kts | 85° |
| 2026-05-06 23:29 | 18.24651 | -67.30266 | 18478 ft | 344 kts | 85° |
| 2026-05-06 23:30 | 18.24809 | -67.27756 | 18110 ft | 343 kts | 85° |
| 2026-05-06 23:30 | 18.24965 | -67.25263 | 17765 ft | 341 kts | 85° |
| 2026-05-06 23:30 | 18.25121 | -67.22776 | 17428 ft | 340 kts | 85° |
| 2026-05-06 23:30 | 18.25276 | -67.20304 | 17093 ft | 338 kts | 85° |
| 2026-05-06 23:31 | 18.25429 | -67.17846 | 16755 ft | 336 kts | 85° |
| 2026-05-06 23:31 | 18.25581 | -67.15395 | 16421 ft | 334 kts | 85° |
| 2026-05-06 23:31 | 18.25635 | -67.12954 | 16086 ft | 333 kts | 89° |
| 2026-05-06 23:31 | 18.25592 | -67.10523 | 15763 ft | 332 kts | 90° |
| 2026-05-06 23:32 | 18.25523 | -67.08103 | 15429 ft | 330 kts | 91° |
| 2026-05-06 23:32 | 18.25452 | -67.05692 | 15101 ft | 329 kts | 91° |
| 2026-05-06 23:32 | 18.25387 | -67.03297 | 14767 ft | 327 kts | 91° |
| 2026-05-06 23:32 | 18.25327 | -67.00912 | 14437 ft | 326 kts | 90° |
| 2026-05-06 23:33 | 18.25272 | -66.98534 | 14109 ft | 324 kts | 90° |
| 2026-05-06 23:33 | 18.25219 | -66.96172 | 13780 ft | 323 kts | 90° |
| 2026-05-06 23:33 | 18.25167 | -66.93817 | 13449 ft | 321 kts | 90° |
| 2026-05-06 23:33 | 18.25118 | -66.91475 | 13127 ft | 319 kts | 90° |
| 2026-05-06 23:34 | 18.25068 | -66.89144 | 12799 ft | 318 kts | 90° |
| 2026-05-06 23:34 | 18.25018 | -66.86823 | 12472 ft | 316 kts | 90° |
| 2026-05-06 23:34 | 18.24968 | -66.84518 | 12147 ft | 315 kts | 91° |
| 2026-05-06 23:34 | 18.24919 | -66.82217 | 11820 ft | 314 kts | 91° |
| 2026-05-06 23:35 | 18.24886 | -66.80702 | 11607 ft | 313 kts | 91° |
| 2026-05-06 23:35 | 18.24853 | -66.79184 | 11386 ft | 312 kts | 91° |
| 2026-05-06 23:35 | 18.24819 | -66.77649 | 11169 ft | 311 kts | 91° |
| 2026-05-06 23:36 | 18.24620 | -66.68624 | 10035 ft | 298 kts | 91° |
| 2026-05-06 23:36 | 18.24573 | -66.66504 | 9921 ft | 288 kts | 91° |
| 2026-05-06 23:36 | 18.24527 | -66.64393 | 9497 ft | 292 kts | 91° |
| 2026-05-06 23:37 | 18.24479 | -66.62269 | 9169 ft | 291 kts | 91° |
| 2026-05-06 23:37 | 18.24431 | -66.60143 | 8900 ft | 289 kts | 91° |
| 2026-05-06 23:37 | 18.24384 | -66.58064 | 8772 ft | 281 kts | 92° |
| 2026-05-06 23:37 | 18.24352 | -66.56686 | 8678 ft | 276 kts | 92° |
| 2026-05-06 23:38 | 18.24292 | -66.54069 | 8510 ft | 265 kts | 92° |
| 2026-05-06 23:38 | 18.24248 | -66.52175 | 8387 ft | 252 kts | 92° |
| 2026-05-06 23:38 | 18.24297 | -66.50381 | 8235 ft | 241 kts | 77° |
| 2026-05-06 23:38 | 18.24979 | -66.48801 | 8049 ft | 235 kts | 60° |
| 2026-05-06 23:39 | 18.25874 | -66.47353 | 7800 ft | 236 kts | 58° |
| 2026-05-06 23:39 | 18.26797 | -66.45928 | 7566 ft | 235 kts | 57° |
| 2026-05-06 23:39 | 18.27719 | -66.44512 | 7317 ft | 234 kts | 57° |
| 2026-05-06 23:39 | 18.28630 | -66.43108 | 7078 ft | 232 kts | 57° |
| 2026-05-06 23:40 | 18.29533 | -66.41704 | 6857 ft | 232 kts | 58° |
| 2026-05-06 23:40 | 18.30437 | -66.40295 | 6608 ft | 232 kts | 58° |
| 2026-05-06 23:40 | 18.31338 | -66.38886 | 6359 ft | 232 kts | 58° |
| 2026-05-06 23:40 | 18.32242 | -66.37473 | 6123 ft | 233 kts | 58° |
| 2026-05-06 23:41 | 18.32839 | -66.36534 | 5954 ft | 232 kts | 58° |
| 2026-05-06 23:41 | 18.33736 | -66.35127 | 5718 ft | 232 kts | 58° |
| 2026-05-06 23:41 | 18.34634 | -66.33720 | 5482 ft | 232 kts | 58° |
| 2026-05-06 23:41 | 18.35531 | -66.32308 | 5177 ft | 234 kts | 58° |
| 2026-05-06 23:42 | 18.36729 | -66.30427 | 4828 ft | 231 kts | 58° |
| 2026-05-06 23:42 | 18.37331 | -66.29483 | 4634 ft | 230 kts | 58° |
| 2026-05-06 23:42 | 18.38495 | -66.27653 | 4306 ft | 225 kts | 58° |
| 2026-05-06 23:42 | 18.39080 | -66.26735 | 4151 ft | 222 kts | 58° |
| 2026-05-06 23:43 | 18.39926 | -66.25405 | 3946 ft | 215 kts | 59° |
| 2026-05-06 23:43 | 18.40737 | -66.24127 | 3715 ft | 206 kts | 59° |
| 2026-05-06 23:43 | 18.41515 | -66.22903 | 3486 ft | 197 kts | 59° |
| 2026-05-06 23:43 | 18.42261 | -66.21728 | 3270 ft | 188 kts | 60° |
| 2026-05-06 23:44 | 18.42970 | -66.20603 | 3092 ft | 179 kts | 61° |
| 2026-05-06 23:44 | 18.43359 | -66.19414 | 2937 ft | 172 kts | 86° |
| 2026-05-06 23:44 | 18.43399 | -66.18154 | 2771 ft | 172 kts | 91° |
| 2026-05-06 23:44 | 18.43393 | -66.16919 | 2572 ft | 170 kts | 92° |
| 2026-05-06 23:45 | 18.43388 | -66.15672 | 2384 ft | 169 kts | 92° |
| 2026-05-06 23:45 | 18.43384 | -66.14439 | 2210 ft | 165 kts | 92° |
| 2026-05-06 23:45 | 18.43380 | -66.13248 | 2031 ft | 161 kts | 92° |
| 2026-05-06 23:45 | 18.43378 | -66.12123 | 1918 ft | 151 kts | 92° |
| 2026-05-06 23:46 | 18.43375 | -66.11020 | 1788 ft | 154 kts | 92° |
| 2026-05-06 23:46 | 18.43372 | -66.09905 | 1596 ft | 152 kts | 92° |
| 2026-05-06 23:46 | 18.43370 | -66.08804 | 1405 ft | 152 kts | 92° |
| 2026-05-06 23:46 | 18.43367 | -66.07686 | 1202 ft | 153 kts | 92° |
| 2026-05-06 23:47 | 18.43365 | -66.06578 | 1001 ft | 153 kts | 92° |
| 2026-05-06 23:47 | 18.43362 | -66.05452 | 795 ft | 152 kts | 92° |
| 2026-05-06 23:47 | 18.43367 | -66.04342 | 584 ft | 151 kts | 90° |
| 2026-05-06 23:47 | 18.43369 | -66.03257 | 375 ft | 151 kts | 92° |
| 2026-05-06 23:48 | 18.43370 | -66.02209 | 217 ft | 147 kts | 92° |
| 2026-05-06 23:48 | 18.43351 | -66.01137 | 29 ft | 145 kts | 91° |
| 2026-05-06 23:48 | 18.43351 | -66.00199 | 16 ft | 100 kts | 90° |
| 2026-05-06 23:48 | 18.43348 | -65.99735 | 16 ft | 33 kts | 89° |
| 2026-05-06 23:49 | 18.43384 | -65.99567 | 17 ft | 15 kts | 46° |
| 2026-05-06 23:49 | 18.43439 | -65.99549 | 16 ft | 0 kts | 357° |
| 2026-05-06 23:51 | 18.43443 | -65.99551 | 16 ft | 4 kts | 342° |
| 2026-05-06 23:51 | 18.43463 | -65.99618 | 16 ft | 15 kts | 271° |
| 2026-05-06 23:51 | 18.43464 | -65.99732 | 16 ft | 16 kts | 270° |
| 2026-05-06 23:51 | 18.43464 | -65.99849 | 16 ft | 14 kts | 269° |
| 2026-05-06 23:52 | 18.43492 | -65.99913 | 16 ft | 9 kts | 339° |
| 2026-05-06 23:52 | 18.43547 | -65.99927 | 16 ft | 8 kts | 321° |
| 2026-05-06 23:52 | 18.43577 | -65.99972 | 19 ft | 8 kts | 317° |
| 2026-05-06 23:52 | 18.43629 | -65.99977 | 16 ft | 8 kts | 5° |
| 2026-05-06 23:53 | 18.43681 | -65.99979 | 16 ft | 7 kts | 348° |
| 2026-05-06 23:53 | 18.43728 | -65.99998 | 16 ft | 7 kts | 336° |
| 2026-05-06 23:53 | 18.43776 | -66.00020 | 17 ft | 7 kts | 337° |
| 2026-05-06 23:53 | 18.43802 | -66.00059 | 16 ft | 7 kts | 262° |
| 2026-05-06 23:54 | 18.43784 | -66.00109 | 17 ft | 7 kts | 247° |
| 2026-05-06 23:54 | 18.43769 | -66.00162 | 16 ft | 8 kts | 258° |
| 2026-05-06 23:54 | 18.43759 | -66.00215 | 18 ft | 7 kts | 259° |
| 2026-05-06 23:54 | 18.43753 | -66.00266 | 16 ft | 3 kts | 281° |
| 2026-05-06 23:55 | 18.43771 | -66.00281 | 16 ft | 4 kts | 336° |
| 2026-05-06 23:55 | 18.43784 | -66.00287 | 16 ft | 1 kts | 341° |
| 2026-05-06 23:55 | 18.43789 | -66.00289 | 16 ft | 0 kts | 341° |